createdAt,value
2019-03-31T00:02:10.660Z,71.41
2019-03-31T00:04:40.388Z,71.32
2019-03-31T00:07:10.104Z,71.87
2019-03-31T00:09:40.084Z,71.24
2019-03-31T00:12:11.483Z,70.97
2019-03-31T00:14:41.321Z,71.08
2019-03-31T00:17:11.026Z,71.64
2019-03-31T00:19:41.258Z,71.69
2019-03-31T00:22:11.051Z,71.82
2019-03-31T00:24:40.708Z,71.84
2019-03-31T00:27:10.641Z,71.48
2019-03-31T00:29:40.362Z,72.00
2019-03-31T00:32:10.700Z,72.14
2019-03-31T00:34:40.338Z,71.67
2019-03-31T00:37:10.045Z,71.72
2019-03-31T00:39:39.860Z,72.34
2019-03-31T00:42:09.557Z,72.75
2019-03-31T00:44:39.174Z,72.29
2019-03-31T00:47:09.009Z,72.60
2019-03-31T00:49:39.187Z,72.50
2019-03-31T00:52:09.005Z,72.49
2019-03-31T00:54:38.745Z,72.60
2019-03-31T00:57:08.608Z,72.68
2019-03-31T00:59:38.253Z,72.92
2019-03-31T01:02:12.148Z,72.80
2019-03-31T01:04:41.780Z,72.55
2019-03-31T01:07:11.476Z,72.59
2019-03-31T01:09:43.221Z,72.65
2019-03-31T01:12:13.128Z,72.57
2019-03-31T01:14:43.125Z,72.83
2019-03-31T01:17:12.954Z,73.13
2019-03-31T01:19:42.788Z,73.15
2019-03-31T01:22:12.720Z,73.62
2019-03-31T01:24:42.722Z,73.29
2019-03-31T01:27:13.590Z,73.47
2019-03-31T01:29:43.251Z,73.54
2019-03-31T01:32:13.521Z,73.53
2019-03-31T01:34:43.113Z,74.40
2019-03-31T01:37:13.025Z,74.62
2019-03-31T01:39:43.028Z,74.28
2019-03-31T01:42:12.635Z,74.51
2019-03-31T01:44:42.554Z,74.51
2019-03-31T01:47:12.640Z,74.81
2019-03-31T01:49:42.480Z,75.62
2019-03-31T01:52:12.093Z,75.09
2019-03-31T01:54:41.730Z,74.90
2019-03-31T01:57:11.751Z,75.55
2019-03-31T01:59:41.337Z,75.41
2019-03-31T02:02:15.306Z,75.00
2019-03-31T02:04:44.986Z,74.99
2019-03-31T02:07:14.693Z,75.42
2019-03-31T02:09:44.546Z,75.72
2019-03-31T02:12:14.225Z,75.55
2019-03-31T02:14:43.879Z,75.42
2019-03-31T02:17:13.502Z,75.45
2019-03-31T02:19:43.236Z,75.74
2019-03-31T02:22:12.920Z,76.75
2019-03-31T02:24:42.660Z,77.68
2019-03-31T02:27:12.560Z,78.32
2019-03-31T02:29:42.222Z,78.81
2019-03-31T02:32:23.656Z,79.40
2019-03-31T02:34:43.182Z,79.55
2019-03-31T02:37:13.105Z,80.03
2019-03-31T02:39:42.825Z,80.97
2019-03-31T02:42:13.897Z,80.82
2019-03-31T02:44:43.581Z,81.02
2019-03-31T02:47:13.156Z,81.09
2019-03-31T02:49:43.091Z,81.67
2019-03-31T02:52:12.921Z,81.51
2019-03-31T02:54:42.748Z,81.59
2019-03-31T02:57:12.364Z,80.94
2019-03-31T02:59:43.723Z,81.11
2019-03-31T03:02:15.008Z,81.23
2019-03-31T03:04:44.866Z,81.31
2019-03-31T03:07:16.424Z,80.99
2019-03-31T03:09:47.176Z,81.43
2019-03-31T03:12:19.014Z,81.60
2019-03-31T03:14:50.707Z,81.71
2019-03-31T03:17:20.388Z,81.88
2019-03-31T03:19:50.023Z,82.18
2019-03-31T03:22:19.752Z,82.55
2019-03-31T03:24:49.814Z,82.79
2019-03-31T03:27:19.476Z,83.58
2019-03-31T03:29:49.078Z,83.81
2019-03-31T03:32:19.043Z,83.92
2019-03-31T03:34:48.673Z,84.59
2019-03-31T03:37:18.504Z,84.59
2019-03-31T03:39:48.148Z,85.29
2019-03-31T03:42:17.994Z,85.54
2019-03-31T03:44:47.596Z,85.34
2019-03-31T03:47:17.254Z,85.90
2019-03-31T03:49:47.392Z,85.67
2019-03-31T03:52:17.039Z,85.45
2019-03-31T03:54:46.815Z,85.35
2019-03-31T03:57:17.011Z,85.80
2019-03-31T03:59:46.651Z,85.80
2019-03-31T04:02:16.269Z,85.76
2019-03-31T04:04:45.912Z,85.74
2019-03-31T04:07:15.533Z,85.83
2019-03-31T04:09:45.456Z,85.71
2019-03-31T04:12:15.262Z,85.86
2019-03-31T04:14:44.920Z,85.88
2019-03-31T04:17:14.711Z,85.85
2019-03-31T04:19:44.376Z,85.98
2019-03-31T04:22:14.030Z,85.78
2019-03-31T04:24:43.721Z,86.06
2019-03-31T04:27:13.558Z,86.01
2019-03-31T04:29:43.179Z,86.29
2019-03-31T04:32:13.028Z,86.61
2019-03-31T04:34:42.774Z,86.78
2019-03-31T04:37:12.451Z,86.70
2019-03-31T04:39:42.073Z,87.16
2019-03-31T04:42:11.674Z,86.90
2019-03-31T04:44:41.282Z,87.08
2019-03-31T04:47:10.882Z,86.64
2019-03-31T04:49:40.581Z,86.48
2019-03-31T04:52:10.273Z,86.17
2019-03-31T04:54:39.986Z,85.86
2019-03-31T04:57:09.572Z,85.71
2019-03-31T04:59:39.268Z,85.93
2019-03-31T05:02:09.005Z,85.93
2019-03-31T05:04:38.809Z,86.30
2019-03-31T05:07:08.548Z,86.61
2019-03-31T05:09:38.258Z,86.59
2019-03-31T05:12:07.861Z,86.78
2019-03-31T05:14:37.575Z,86.79
2019-03-31T05:17:07.207Z,87.20
2019-03-31T05:19:37.065Z,87.39
2019-03-31T05:22:06.676Z,87.80
2019-03-31T05:24:36.456Z,87.82
2019-03-31T05:27:06.054Z,86.74
2019-03-31T05:29:35.715Z,85.15
2019-03-31T05:32:05.611Z,85.15
2019-03-31T05:34:35.595Z,84.19
2019-03-31T05:37:05.487Z,84.32
2019-03-31T05:39:35.604Z,83.96
2019-03-31T05:42:05.396Z,83.96
2019-03-31T05:44:35.179Z,83.54
2019-03-31T05:47:04.787Z,83.73
2019-03-31T05:49:34.629Z,82.80
2019-03-31T05:52:04.310Z,82.78
2019-03-31T05:54:33.870Z,82.82
2019-03-31T05:57:03.733Z,82.09
2019-03-31T05:59:33.440Z,81.06
2019-03-31T06:02:03.141Z,81.23
2019-03-31T06:04:33.660Z,80.68
2019-03-31T06:07:03.467Z,80.46
2019-03-31T06:09:33.263Z,80.98
2019-03-31T06:12:03.028Z,81.15
2019-03-31T06:14:32.676Z,80.45
2019-03-31T06:17:02.303Z,80.41
2019-03-31T06:19:32.192Z,80.09
2019-03-31T06:22:01.828Z,79.69
2019-03-31T06:24:31.521Z,78.41
2019-03-31T06:27:01.818Z,77.43
2019-03-31T06:29:31.478Z,76.58
2019-03-31T06:32:01.133Z,76.01
2019-03-31T06:34:31.162Z,76.22
2019-03-31T06:37:00.839Z,74.46
2019-03-31T06:39:34.016Z,73.81
2019-03-31T06:42:02.071Z,73.84
2019-03-31T06:44:32.089Z,73.29
2019-03-31T06:47:01.746Z,73.12
2019-03-31T06:49:31.534Z,71.56
2019-03-31T06:52:01.241Z,70.28
2019-03-31T06:54:31.046Z,70.16
2019-03-31T06:57:00.826Z,69.56
2019-03-31T06:59:30.480Z,69.37
2019-03-31T07:02:02.994Z,70.12
2019-03-31T07:04:31.978Z,69.66
2019-03-31T07:07:01.806Z,68.89
2019-03-31T07:09:31.549Z,68.85
2019-03-31T07:12:01.335Z,68.12
2019-03-31T07:14:31.128Z,66.80
2019-03-31T07:17:00.779Z,66.53
2019-03-31T07:19:30.426Z,65.48
2019-03-31T07:22:00.323Z,64.37
2019-03-31T07:24:30.232Z,63.23
2019-03-31T07:27:00.381Z,62.46
2019-03-31T07:29:30.147Z,60.82
2019-03-31T07:31:59.806Z,60.37
2019-03-31T07:34:30.074Z,61.05
2019-03-31T07:36:59.853Z,59.72
2019-03-31T07:39:29.684Z,59.50
2019-03-31T07:41:59.578Z,59.35
2019-03-31T07:44:29.686Z,59.12
2019-03-31T07:47:00.151Z,57.62
2019-03-31T07:49:29.914Z,56.75
2019-03-31T07:51:59.631Z,56.02
2019-03-31T07:54:29.273Z,55.30
2019-03-31T07:56:58.922Z,55.84
2019-03-31T07:59:28.646Z,55.78
2019-03-31T08:01:58.278Z,53.55
2019-03-31T08:04:28.477Z,52.15
2019-03-31T08:06:58.253Z,52.37
2019-03-31T08:09:27.929Z,50.99
2019-03-31T08:11:57.760Z,50.56
2019-03-31T08:14:27.654Z,49.52
2019-03-31T08:16:57.343Z,49.42
2019-03-31T08:19:27.396Z,50.04
2019-03-31T08:21:57.089Z,47.57
2019-03-31T08:24:26.900Z,48.22
2019-03-31T08:26:56.872Z,47.30
2019-03-31T08:29:26.740Z,47.62
2019-03-31T08:31:56.769Z,47.12
2019-03-31T08:34:26.457Z,46.98
2019-03-31T08:36:56.281Z,46.35
2019-03-31T08:39:25.899Z,46.21
2019-03-31T08:41:55.689Z,45.42
2019-03-31T08:44:25.352Z,44.62
2019-03-31T08:46:55.003Z,44.31
2019-03-31T08:49:30.347Z,44.25
2019-03-31T08:52:04.477Z,43.97
2019-03-31T08:54:34.354Z,44.46
2019-03-31T08:57:04.155Z,44.52
2019-03-31T08:59:34.185Z,43.32
2019-03-31T09:02:21.777Z,42.73
2019-03-31T09:04:51.476Z,41.72
2019-03-31T09:07:21.240Z,41.08
2019-03-31T09:09:51.194Z,40.50
2019-03-31T09:12:20.829Z,41.55
2019-03-31T09:14:51.034Z,41.07
2019-03-31T09:17:21.055Z,41.91
2019-03-31T09:19:50.859Z,41.23
2019-03-31T09:22:20.635Z,40.52
2019-03-31T09:24:50.717Z,40.23
2019-03-31T09:27:20.605Z,41.15
2019-03-31T09:29:50.353Z,40.15
2019-03-31T09:32:20.191Z,40.14
2019-03-31T09:34:50.462Z,39.83
2019-03-31T09:37:20.384Z,39.53
2019-03-31T09:39:50.273Z,37.38
2019-03-31T09:42:19.970Z,37.85
2019-03-31T09:44:49.925Z,38.49
2019-03-31T09:47:19.608Z,39.54
2019-03-31T09:49:49.574Z,38.99
2019-03-31T09:52:19.451Z,39.17
2019-03-31T09:54:49.320Z,37.61
2019-03-31T09:57:19.102Z,36.41
2019-03-31T09:59:48.871Z,37.15
2019-03-31T10:02:18.832Z,37.61
2019-03-31T10:04:48.762Z,38.28
2019-03-31T10:07:18.924Z,37.55
2019-03-31T10:09:49.045Z,37.23
2019-03-31T10:12:19.308Z,36.84
2019-03-31T10:14:49.046Z,36.82
2019-03-31T10:17:20.622Z,37.18
2019-03-31T10:19:50.450Z,37.32
2019-03-31T10:22:20.290Z,36.31
2019-03-31T10:24:50.058Z,36.92
2019-03-31T10:27:19.914Z,37.27
2019-03-31T10:29:50.035Z,36.46
2019-03-31T10:32:19.950Z,35.50
2019-03-31T10:34:49.715Z,35.43
2019-03-31T10:37:19.498Z,34.11
2019-03-31T10:39:50.974Z,34.69
2019-03-31T10:42:20.649Z,35.32
2019-03-31T10:44:50.856Z,34.91
2019-03-31T10:47:20.698Z,34.75
2019-03-31T10:49:50.501Z,34.14
2019-03-31T10:52:20.123Z,34.37
2019-03-31T10:54:50.027Z,33.21
2019-03-31T10:57:20.004Z,32.98
2019-03-31T10:59:49.739Z,32.83
2019-03-31T11:02:19.611Z,31.64
2019-03-31T11:04:49.450Z,30.78
2019-03-31T11:07:19.200Z,29.62
2019-03-31T11:09:48.948Z,29.59
2019-03-31T11:12:18.745Z,28.97
2019-03-31T11:14:48.464Z,29.10
2019-03-31T11:17:18.247Z,29.05
2019-03-31T11:19:48.044Z,29.91
2019-03-31T11:22:31.140Z,29.46
2019-03-31T11:25:00.969Z,29.48
2019-03-31T11:27:30.627Z,29.48
2019-03-31T11:30:00.397Z,28.89
2019-03-31T11:32:30.033Z,28.76
2019-03-31T11:34:59.627Z,28.12
2019-03-31T11:37:29.234Z,28.03
2019-03-31T11:39:59.027Z,29.09
2019-03-31T11:42:28.920Z,28.98
2019-03-31T11:44:58.535Z,28.67
2019-03-31T11:47:28.162Z,28.97
2019-03-31T11:49:57.983Z,28.37
2019-03-31T11:52:27.640Z,28.18
2019-03-31T11:54:57.271Z,28.54
2019-03-31T11:57:27.109Z,28.26
2019-03-31T11:59:56.920Z,28.58
2019-03-31T12:02:27.803Z,28.51
2019-03-31T12:04:57.624Z,28.33
2019-03-31T12:07:28.619Z,28.32
2019-03-31T12:09:58.636Z,28.57
2019-03-31T12:12:28.356Z,28.30
2019-03-31T12:15:00.633Z,28.15
2019-03-31T12:17:29.699Z,27.84
2019-03-31T12:19:59.317Z,27.37
2019-03-31T12:22:29.141Z,26.91
2019-03-31T12:24:58.941Z,27.46
2019-03-31T12:27:28.553Z,26.51
2019-03-31T12:29:58.549Z,24.92
2019-03-31T12:32:28.206Z,25.31
2019-03-31T12:34:58.016Z,24.90
2019-03-31T12:37:41.239Z,24.60
2019-03-31T12:39:59.891Z,24.27
2019-03-31T12:42:29.895Z,24.50
2019-03-31T12:44:59.513Z,24.40
2019-03-31T12:47:29.140Z,25.69
2019-03-31T12:49:58.983Z,26.17
2019-03-31T12:52:28.581Z,25.12
2019-03-31T12:54:58.315Z,24.27
2019-03-31T12:57:28.060Z,24.55
2019-03-31T12:59:58.068Z,23.82
2019-03-31T13:02:27.761Z,23.60
2019-03-31T13:04:57.559Z,23.04
2019-03-31T13:07:27.753Z,23.59
2019-03-31T13:09:57.349Z,23.73
2019-03-31T13:12:27.271Z,23.62
2019-03-31T13:14:56.904Z,24.02
2019-03-31T13:17:26.555Z,23.43
2019-03-31T13:19:56.299Z,24.00
2019-03-31T13:22:25.874Z,23.99
2019-03-31T13:24:56.272Z,23.53
2019-03-31T13:27:26.118Z,24.00
2019-03-31T13:29:56.391Z,23.73
2019-03-31T13:32:26.229Z,23.99
2019-03-31T13:34:55.888Z,23.60
2019-03-31T13:37:25.653Z,23.69
2019-03-31T13:39:55.741Z,23.79
2019-03-31T13:42:25.702Z,23.86
2019-03-31T13:44:55.581Z,23.94
2019-03-31T13:47:26.059Z,24.51
2019-03-31T13:49:55.768Z,23.93
2019-03-31T13:52:25.525Z,24.15
2019-03-31T13:54:55.238Z,24.15
2019-03-31T13:57:25.687Z,24.42
2019-03-31T13:59:56.446Z,24.78
2019-03-31T14:02:26.262Z,24.60
2019-03-31T14:04:56.118Z,24.42
2019-03-31T14:07:26.054Z,24.51
2019-03-31T14:09:55.906Z,24.68
2019-03-31T14:12:25.795Z,24.59
2019-03-31T14:14:58.245Z,24.17
2019-03-31T14:17:28.008Z,24.45
2019-03-31T14:19:58.601Z,24.39
2019-03-31T14:22:28.318Z,24.82
2019-03-31T14:24:58.029Z,23.99
2019-03-31T14:27:28.063Z,24.77
2019-03-31T14:29:57.663Z,24.43
2019-03-31T14:32:27.354Z,23.72
2019-03-31T14:34:56.928Z,23.78
2019-03-31T14:37:26.701Z,25.11
2019-03-31T14:39:56.692Z,25.74
2019-03-31T14:42:26.384Z,25.48
2019-03-31T14:44:56.358Z,25.66
2019-03-31T14:47:25.942Z,26.00
2019-03-31T14:49:55.621Z,26.70
2019-03-31T14:52:27.653Z,26.22
2019-03-31T14:54:56.591Z,26.50
2019-03-31T14:57:26.582Z,26.60
2019-03-31T14:59:56.778Z,27.10
2019-03-31T15:02:26.683Z,26.92
2019-03-31T15:04:56.354Z,27.04
2019-03-31T15:07:26.034Z,27.20
2019-03-31T15:10:10.043Z,27.07
2019-03-31T15:12:40.103Z,27.05
2019-03-31T15:15:09.799Z,26.72
2019-03-31T15:17:42.696Z,26.15
2019-03-31T15:20:12.653Z,26.68
2019-03-31T15:22:43.261Z,26.29
2019-03-31T15:25:13.995Z,26.35
2019-03-31T15:27:43.648Z,25.82
2019-03-31T15:30:14.463Z,26.42
2019-03-31T15:32:44.114Z,26.53
2019-03-31T15:35:14.197Z,26.27
2019-03-31T15:37:44.265Z,26.10
2019-03-31T15:40:14.557Z,26.87
2019-03-31T15:42:44.238Z,26.89
2019-03-31T15:45:14.072Z,27.39
2019-03-31T15:47:43.833Z,27.09
2019-03-31T15:50:14.228Z,27.13
2019-03-31T15:52:43.884Z,27.51
2019-03-31T15:55:16.057Z,27.76
2019-03-31T15:57:45.932Z,27.60
2019-03-31T16:00:16.736Z,27.34
2019-03-31T16:02:47.713Z,27.78
2019-03-31T16:05:17.452Z,27.41
2019-03-31T16:07:47.362Z,27.69
2019-03-31T16:10:16.832Z,27.48
2019-03-31T16:12:46.127Z,27.40
2019-03-31T16:15:15.544Z,27.86
2019-03-31T16:17:44.807Z,27.44
2019-03-31T16:20:14.058Z,27.63
2019-03-31T16:22:43.268Z,28.11
2019-03-31T16:25:26.915Z,28.43
2019-03-31T16:27:56.146Z,27.82
2019-03-31T16:30:25.219Z,28.36
2019-03-31T16:32:54.337Z,28.58
2019-03-31T16:35:23.521Z,28.77
2019-03-31T16:37:52.633Z,28.95
2019-03-31T16:40:21.783Z,29.00
2019-03-31T16:42:52.965Z,28.98
2019-03-31T16:45:22.205Z,28.72
2019-03-31T16:47:51.434Z,28.56
2019-03-31T16:50:20.665Z,28.75
2019-03-31T16:52:52.640Z,28.90
2019-03-31T16:55:21.037Z,28.52
2019-03-31T16:57:50.496Z,28.22
2019-03-31T17:00:20.032Z,28.24
2019-03-31T17:02:49.116Z,28.61
2019-03-31T17:05:21.936Z,29.12
2019-03-31T17:07:49.070Z,29.01
2019-03-31T17:10:19.231Z,29.33
2019-03-31T17:12:48.595Z,29.39
2019-03-31T17:15:17.817Z,28.99
2019-03-31T17:17:47.125Z,29.51
2019-03-31T17:20:16.306Z,29.32
2019-03-31T17:22:45.414Z,29.54
2019-03-31T17:25:14.710Z,29.79
2019-03-31T17:27:44.097Z,30.01
2019-03-31T17:30:13.542Z,30.28
2019-03-31T17:32:42.593Z,31.08
2019-03-31T17:35:11.736Z,31.02
2019-03-31T17:37:40.919Z,31.44
2019-03-31T17:40:10.356Z,31.72
2019-03-31T17:42:39.499Z,32.36
2019-03-31T17:45:08.792Z,32.24
2019-03-31T17:47:37.801Z,32.45
2019-03-31T17:50:06.923Z,32.55
2019-03-31T17:52:36.093Z,32.67
2019-03-31T17:55:06.010Z,32.97
2019-03-31T17:57:36.877Z,33.41
2019-03-31T18:00:07.956Z,33.44
2019-03-31T18:02:37.183Z,33.98
2019-03-31T18:05:07.760Z,34.30
2019-03-31T18:07:37.174Z,34.70
2019-03-31T18:10:20.176Z,35.05
2019-03-31T18:12:38.632Z,35.58
2019-03-31T18:15:07.969Z,35.76
2019-03-31T18:17:37.067Z,36.07
2019-03-31T18:20:06.937Z,36.39
2019-03-31T18:22:36.095Z,36.49
2019-03-31T18:25:06.665Z,36.34
2019-03-31T18:27:36.023Z,36.63
2019-03-31T18:30:05.521Z,36.94
2019-03-31T18:32:34.628Z,37.37
2019-03-31T18:35:03.816Z,37.82
2019-03-31T18:37:32.967Z,38.18
2019-03-31T18:40:02.102Z,38.52
2019-03-31T18:42:31.233Z,38.75
2019-03-31T18:45:00.578Z,39.25
2019-03-31T18:47:29.691Z,39.64
2019-03-31T18:49:58.989Z,39.71
2019-03-31T18:52:28.087Z,39.87
2019-03-31T18:55:03.399Z,40.06
2019-03-31T18:57:47.609Z,40.16
2019-03-31T19:00:47.886Z,40.59
2019-03-31T19:03:34.945Z,41.01
2019-03-31T19:06:27.329Z,42.39
2019-03-31T19:09:15.546Z,42.73
2019-03-31T19:12:02.582Z,43.62
2019-03-31T19:14:54.641Z,44.91
2019-03-31T19:18:01.541Z,46.52
2019-03-31T19:20:42.136Z,48.25
2019-03-31T19:23:31.357Z,49.80
2019-03-31T19:26:48.359Z,50.02
2019-03-31T19:29:45.861Z,50.79
2019-03-31T19:32:36.705Z,51.58
2019-03-31T19:35:23.871Z,52.32
2019-03-31T19:38:18.373Z,52.77
2019-03-31T19:41:18.934Z,52.71
2019-03-31T19:44:09.973Z,53.17
2019-03-31T19:47:00.443Z,53.56
2019-03-31T19:49:54.409Z,53.74
2019-03-31T19:52:35.848Z,54.26
2019-03-31T19:55:26.806Z,55.48
2019-03-31T19:58:33.185Z,56.25
2019-03-31T20:01:10.316Z,56.54
2019-03-31T20:04:04.742Z,57.76
2019-03-31T20:06:44.490Z,58.03
2019-03-31T20:09:40.533Z,57.57
2019-03-31T20:12:31.417Z,57.80
2019-03-31T20:15:12.897Z,58.95
2019-03-31T20:17:55.537Z,59.44
2019-03-31T20:20:36.589Z,59.70
2019-03-31T20:23:24.859Z,59.98
2019-03-31T20:26:05.137Z,60.27
2019-03-31T20:28:50.551Z,60.49
2019-03-31T20:31:50.887Z,60.73
2019-03-31T20:34:40.483Z,60.71
2019-03-31T20:37:41.023Z,60.61
2019-03-31T20:40:20.297Z,60.84
2019-03-31T20:43:08.527Z,61.33
2019-03-31T20:45:39.422Z,60.81
2019-03-31T20:48:08.532Z,56.86
2019-03-31T20:50:38.156Z,56.98
2019-03-31T20:53:07.366Z,54.75
2019-03-31T20:55:36.708Z,54.78
2019-03-31T20:58:05.888Z,54.64
2019-03-31T21:00:34.982Z,54.72
2019-03-31T21:03:04.081Z,55.00
2019-03-31T21:05:33.450Z,56.31
2019-03-31T21:08:02.538Z,56.68
2019-03-31T21:10:34.978Z,56.03
2019-03-31T21:13:04.377Z,56.84
2019-03-31T21:15:33.693Z,55.93
2019-03-31T21:18:03.006Z,56.27
2019-03-31T21:20:32.125Z,56.17
2019-03-31T21:23:01.449Z,56.65
2019-03-31T21:25:30.627Z,56.35
2019-03-31T21:27:59.978Z,56.84
2019-03-31T21:30:30.940Z,55.28
2019-03-31T21:33:00.155Z,56.77
2019-03-31T21:35:29.548Z,56.95
2019-03-31T21:37:58.843Z,56.90
2019-03-31T21:40:27.959Z,56.45
2019-03-31T21:42:57.129Z,57.10
2019-03-31T21:45:26.352Z,58.17
2019-03-31T21:47:56.442Z,58.86
2019-03-31T21:50:26.090Z,59.50
2019-03-31T21:52:56.013Z,60.37
2019-03-31T21:55:25.308Z,60.80
2019-03-31T21:57:54.423Z,61.98
2019-03-31T22:00:36.380Z,62.04
2019-03-31T22:03:05.695Z,62.82
2019-03-31T22:05:34.703Z,63.51
2019-03-31T22:08:04.185Z,63.87
2019-03-31T22:10:33.175Z,63.87
2019-03-31T22:13:02.612Z,64.17
2019-03-31T22:15:31.707Z,64.27
2019-03-31T22:18:00.901Z,65.10
2019-03-31T22:20:30.768Z,65.41
2019-03-31T22:23:00.198Z,65.82
2019-03-31T22:25:29.545Z,66.29
2019-03-31T22:27:58.671Z,66.32
2019-03-31T22:30:28.003Z,66.19
2019-03-31T22:32:58.301Z,66.68
2019-03-31T22:35:27.521Z,66.55
2019-03-31T22:37:56.742Z,66.71
2019-03-31T22:40:26.115Z,66.69
2019-03-31T22:42:55.198Z,66.81
2019-03-31T22:45:24.507Z,66.89
2019-03-31T22:47:53.592Z,67.48
2019-03-31T22:50:22.978Z,67.49
2019-03-31T22:52:52.324Z,67.64
2019-03-31T22:55:21.453Z,68.02
2019-03-31T22:57:50.517Z,68.18
2019-03-31T23:00:26.364Z,68.43
2019-03-31T23:02:55.746Z,68.42
2019-03-31T23:05:24.862Z,68.57
2019-03-31T23:07:54.096Z,68.44
2019-03-31T23:10:23.382Z,68.84
2019-03-31T23:12:52.839Z,68.79
2019-03-31T23:15:21.898Z,69.26
2019-03-31T23:17:50.954Z,69.45
2019-03-31T23:20:20.268Z,69.54
2019-03-31T23:22:49.375Z,69.44
2019-03-31T23:25:18.577Z,70.07
2019-03-31T23:27:47.938Z,69.64
2019-03-31T23:30:17.381Z,70.24
2019-03-31T23:32:46.532Z,70.34
2019-03-31T23:35:15.709Z,70.09
2019-03-31T23:37:45.821Z,70.21
2019-03-31T23:40:14.882Z,70.12
2019-03-31T23:42:44.273Z,70.05
2019-03-31T23:45:13.418Z,70.84
2019-03-31T23:47:42.621Z,70.33
2019-03-31T23:50:11.819Z,70.43
2019-03-31T23:52:40.998Z,70.69
2019-03-31T23:55:10.323Z,71.16
2019-03-31T23:57:39.880Z,71.15
